createdAt,value
2022-10-25T00:00:07.712Z,13.2
2022-10-25T00:01:07.904Z,13.12
2022-10-25T00:02:08.073Z,13.28
2022-10-25T00:03:08.066Z,13.2
2022-10-25T00:04:08.240Z,13.2
2022-10-25T00:05:08.368Z,13.2
2022-10-25T00:06:08.522Z,13.28
2022-10-25T00:07:08.686Z,13.2
2022-10-25T00:08:08.828Z,13.28
2022-10-25T00:09:08.987Z,13.2
2022-10-25T00:10:09.074Z,13.52
2022-10-25T00:11:09.241Z,13.28
2022-10-25T00:12:09.390Z,13.44
2022-10-25T00:13:09.532Z,13.599999
2022-10-25T00:14:09.678Z,13.52
2022-10-25T00:15:09.789Z,13.52
2022-10-25T00:16:09.929Z,13.44
2022-10-25T00:17:10.090Z,13.28
2022-10-25T00:18:10.244Z,13.28
2022-10-25T00:19:10.350Z,13.2
2022-10-25T00:20:10.499Z,13.12
2022-10-25T00:21:10.651Z,12.88
2022-10-25T00:22:10.800Z,13.12
2022-10-25T00:23:10.951Z,13.04
2022-10-25T00:24:11.111Z,13.12
2022-10-25T00:25:11.267Z,13.28
2022-10-25T00:26:11.406Z,13.12
2022-10-25T00:27:11.564Z,13.28
2022-10-25T00:28:11.719Z,13.12
2022-10-25T00:29:11.912Z,12.799999
2022-10-25T00:30:12.015Z,13.28
2022-10-25T00:31:12.158Z,13.44
2022-10-25T00:32:12.321Z,13.2
2022-10-25T00:33:12.466Z,13.28
2022-10-25T00:34:12.578Z,13.12
2022-10-25T00:35:12.727Z,12.88
2022-10-25T00:36:12.825Z,12.719999
2022-10-25T00:37:12.972Z,13.04
2022-10-25T00:38:13.132Z,12.88
2022-10-25T00:39:13.283Z,12.799999
2022-10-25T00:40:13.440Z,12.48
2022-10-25T00:41:13.587Z,12.639999
2022-10-25T00:42:13.736Z,12.48
2022-10-25T00:43:13.894Z,12.48
2022-10-25T00:44:14.054Z,12.4
2022-10-25T00:45:14.191Z,12.88
2022-10-25T00:46:14.281Z,12.719999
2022-10-25T00:47:14.452Z,12.639999
2022-10-25T00:48:14.607Z,12.719999
2022-10-25T00:49:14.746Z,12.799999
2022-10-25T00:50:14.904Z,12.719999
2022-10-25T00:51:15.044Z,12.32
2022-10-25T00:52:15.201Z,12.639999
2022-10-25T00:53:15.355Z,12.4
2022-10-25T00:54:15.571Z,12.32
2022-10-25T00:55:15.655Z,12.32
2022-10-25T00:56:15.815Z,12.32
2022-10-25T00:57:15.969Z,12.799999
2022-10-25T00:58:16.105Z,12.719999
2022-10-25T00:59:16.271Z,12.719999
2022-10-25T01:00:16.420Z,12.719999
2022-10-25T01:01:16.635Z,12.799999
2022-10-25T01:02:16.841Z,12.719999
2022-10-25T01:03:16.870Z,12.639999
2022-10-25T01:04:17.029Z,12.4
2022-10-25T01:05:17.183Z,12.32
2022-10-25T01:06:17.278Z,12
2022-10-25T01:07:17.427Z,12.08
2022-10-25T01:08:17.533Z,12
2022-10-25T01:09:17.683Z,12.48
2022-10-25T01:10:17.784Z,12.4
2022-10-25T01:12:18.026Z,12.32
2022-10-25T01:13:18.176Z,12.48
2022-10-25T01:14:18.282Z,12.4
2022-10-25T01:15:18.440Z,12
2022-10-25T01:16:18.582Z,12.4
2022-10-25T01:17:18.737Z,12.24
2022-10-25T01:18:18.850Z,12.24
2022-10-25T01:19:19.034Z,12
2022-10-25T01:20:19.207Z,12.08
2022-10-25T01:21:19.343Z,12.08
2022-10-25T01:22:19.503Z,12.24
2022-10-25T01:23:19.652Z,12.24
2022-10-25T01:24:19.802Z,12.639999
2022-10-25T01:25:19.955Z,12.32
2022-10-25T01:26:20.114Z,12.24
2022-10-25T01:27:20.258Z,12.4
2022-10-25T01:28:20.410Z,12.4
2022-10-25T01:29:20.568Z,12.4
2022-10-25T01:30:20.723Z,12.32
2022-10-25T01:31:20.857Z,12.08
2022-10-25T01:32:20.976Z,11.92
2022-10-25T01:33:21.115Z,11.52
2022-10-25T01:34:21.280Z,11.28
2022-10-25T01:35:21.427Z,11.52
2022-10-25T01:36:21.566Z,11.52
2022-10-25T01:37:21.726Z,11.679999
2022-10-25T01:38:21.835Z,12.08
2022-10-25T01:39:22.001Z,11.84
2022-10-25T01:40:22.135Z,11.92
2022-10-25T01:41:22.294Z,12.08
2022-10-25T01:42:22.435Z,11.84
2022-10-25T01:43:22.594Z,11.679999
2022-10-25T01:44:22.829Z,11.679999
2022-10-25T01:45:22.892Z,11.679999
2022-10-25T01:46:23.031Z,11.92
2022-10-25T01:47:23.197Z,12
2022-10-25T01:48:23.351Z,11.679999
2022-10-25T01:49:23.454Z,11.679999
2022-10-25T01:50:23.566Z,11.599999
2022-10-25T01:51:23.703Z,11.679999
2022-10-25T01:52:23.808Z,12
2022-10-25T01:53:23.952Z,12
2022-10-25T01:54:24.099Z,12.08
2022-10-25T01:55:24.261Z,12.08
2022-10-25T01:56:24.407Z,12.08
2022-10-25T01:57:24.568Z,12.24
2022-10-25T01:58:24.720Z,11.92
2022-10-25T01:59:24.866Z,11.52
2022-10-25T02:00:25.016Z,11.84
2022-10-25T02:01:25.312Z,11.84
2022-10-25T02:02:25.259Z,11.679999
2022-10-25T02:03:25.367Z,12.24
2022-10-25T02:04:25.527Z,11.84
2022-10-25T02:05:25.620Z,11.84
2022-10-25T02:06:25.771Z,12.24
2022-10-25T02:07:25.885Z,12.4
2022-10-25T02:08:26.037Z,12
2022-10-25T02:09:26.135Z,12.08
2022-10-25T02:10:26.282Z,12.08
2022-10-25T02:11:26.441Z,12.32
2022-10-25T02:12:26.587Z,12
2022-10-25T02:13:26.730Z,12.08
2022-10-25T02:14:26.894Z,12.32
2022-10-25T02:15:26.999Z,12.32
2022-10-25T02:16:27.138Z,12.08
2022-10-25T02:17:27.243Z,12
2022-10-25T02:18:27.449Z,12.4
2022-10-25T02:19:27.552Z,12.4
2022-10-25T02:20:27.706Z,12.32
2022-10-25T02:21:27.857Z,11.84
2022-10-25T02:22:27.947Z,12
2022-10-25T02:23:28.110Z,11.92
2022-10-25T02:24:28.268Z,11.92
2022-10-25T02:25:28.418Z,11.84
2022-10-25T02:26:28.564Z,11.84
2022-10-25T02:27:28.725Z,12
2022-10-25T02:28:28.863Z,12
2022-10-25T02:29:29.010Z,11.599999
2022-10-25T02:30:29.173Z,11.52
2022-10-25T02:31:29.322Z,11.84
2022-10-25T02:32:29.468Z,11.84
2022-10-25T02:33:29.574Z,11.52
2022-10-25T02:34:29.730Z,11.84
2022-10-25T02:35:29.877Z,11.84
2022-10-25T02:36:30.025Z,11.52
2022-10-25T02:37:30.188Z,11.52
2022-10-25T02:38:30.335Z,11.599999
2022-10-25T02:39:31.271Z,11.52
2022-10-25T02:40:30.595Z,11.679999
2022-10-25T02:41:30.726Z,11.44
2022-10-25T02:42:30.878Z,11.2
2022-10-25T02:43:31.004Z,11.12
2022-10-25T02:44:31.094Z,11.44
2022-10-25T02:45:31.246Z,11.2
2022-10-25T02:46:31.383Z,11.28
2022-10-25T02:47:31.488Z,11.52
2022-10-25T02:48:31.655Z,11.84
2022-10-25T02:49:31.797Z,11.52
2022-10-25T02:50:31.958Z,11.679999
2022-10-25T02:51:32.102Z,11.599999
2022-10-25T02:52:32.226Z,11.52
2022-10-25T02:53:32.345Z,11.679999
2022-10-25T02:54:32.412Z,11.2
2022-10-25T02:55:32.564Z,10.88
2022-10-25T02:56:32.682Z,11.04
2022-10-25T02:57:32.881Z,11.04
2022-10-25T02:58:32.983Z,10.88
2022-10-25T02:59:33.113Z,11.2
2022-10-25T03:00:33.333Z,11.2
2022-10-25T03:01:33.458Z,11.44
2022-10-25T03:02:33.521Z,11.28
2022-10-25T03:03:33.675Z,11.599999
2022-10-25T03:04:33.830Z,11.679999
2022-10-25T03:05:33.922Z,11.599999
2022-10-25T03:06:34.084Z,11.44
2022-10-25T03:07:34.230Z,11.28
2022-10-25T03:08:34.398Z,11.44
2022-10-25T03:09:34.540Z,11.52
2022-10-25T03:10:34.679Z,11.52
2022-10-25T03:11:34.839Z,11.52
2022-10-25T03:12:34.989Z,11.599999
2022-10-25T03:13:35.585Z,11.44
2022-10-25T03:14:35.736Z,11.52
2022-10-25T03:15:35.734Z,11.52
2022-10-25T03:16:36.028Z,11.52
2022-10-25T03:17:36.083Z,11.679999
2022-10-25T03:18:36.235Z,11.679999
2022-10-25T03:19:36.391Z,11.599999
2022-10-25T03:20:36.146Z,11.44
2022-10-25T03:21:37.664Z,11.679999
2022-10-25T03:22:36.746Z,11.679999
2022-10-25T03:23:36.510Z,11.599999
2022-10-25T03:24:36.662Z,11.599999
2022-10-25T03:25:36.818Z,11.2
2022-10-25T03:26:36.969Z,11.2
2022-10-25T03:27:37.122Z,11.52
2022-10-25T03:28:37.268Z,11.84
2022-10-25T03:29:37.428Z,11.679999
2022-10-25T03:30:37.562Z,11.52
2022-10-25T03:31:37.734Z,11.599999
2022-10-25T03:32:37.866Z,11.679999
2022-10-25T03:33:38.037Z,11.679999
2022-10-25T03:34:38.186Z,11.679999
2022-10-25T03:35:38.331Z,11.679999
2022-10-25T03:36:38.484Z,11.92
2022-10-25T03:37:38.638Z,11.599999
2022-10-25T03:38:38.783Z,11.92
2022-10-25T03:39:38.937Z,11.599999
2022-10-25T03:40:39.098Z,11.599999
2022-10-25T03:41:39.238Z,11.84
2022-10-25T03:42:39.384Z,11.599999
2022-10-25T03:43:39.541Z,11.679999
2022-10-25T03:44:39.708Z,12
2022-10-25T03:45:39.836Z,12.24
2022-10-25T03:46:39.940Z,11.679999
2022-10-25T03:47:40.093Z,12
2022-10-25T03:48:40.207Z,11.92
2022-10-25T03:49:40.400Z,12
2022-10-25T03:50:40.503Z,12
2022-10-25T03:51:40.658Z,12.08
2022-10-25T03:52:40.821Z,12
2022-10-25T03:53:40.954Z,12.08
2022-10-25T03:54:41.062Z,11.92
2022-10-25T03:55:41.219Z,11.92
2022-10-25T03:56:41.316Z,12.32
2022-10-25T03:57:41.466Z,12.4
2022-10-25T03:58:41.619Z,12.4
2022-10-25T03:59:41.733Z,12
2022-10-25T04:00:41.874Z,12.24
2022-10-25T04:01:42.137Z,12
2022-10-25T04:02:42.177Z,12
2022-10-25T04:03:42.333Z,12.08
2022-10-25T04:04:42.441Z,12.32
2022-10-25T04:05:42.584Z,12
2022-10-25T04:06:42.750Z,11.92
2022-10-25T04:07:42.838Z,11.599999
2022-10-25T04:08:42.989Z,12
2022-10-25T04:09:43.141Z,11.679999
2022-10-25T04:10:43.291Z,12
2022-10-25T04:11:43.443Z,11.92
2022-10-25T04:12:43.584Z,12.08
2022-10-25T04:13:43.696Z,11.92
2022-10-25T04:14:43.801Z,11.679999
2022-10-25T04:15:43.934Z,12.08
2022-10-25T04:16:44.088Z,11.84
2022-10-25T04:17:44.342Z,11.92
2022-10-25T04:18:44.406Z,11.679999
2022-10-25T04:19:44.559Z,11.52
2022-10-25T04:20:44.657Z,11.44
2022-10-25T04:21:44.763Z,11.679999
2022-10-25T04:22:44.931Z,11.92
2022-10-25T04:23:45.072Z,12
2022-10-25T04:24:45.232Z,11.92
2022-10-25T04:25:45.371Z,11.599999
2022-10-25T04:26:45.514Z,11.679999
2022-10-25T04:27:45.799Z,11.679999
2022-10-25T04:28:45.771Z,11.679999
2022-10-25T04:29:45.927Z,11.92
2022-10-25T04:30:46.066Z,11.84
2022-10-25T04:31:46.182Z,11.679999
2022-10-25T04:32:46.705Z,11.84
2022-10-25T04:33:48.084Z,11.84
2022-10-25T04:34:46.633Z,11.679999
2022-10-25T04:35:46.737Z,11.44
2022-10-25T04:36:46.839Z,11.84
2022-10-25T04:37:46.991Z,11.679999
2022-10-25T04:38:47.139Z,11.599999
2022-10-25T04:39:47.303Z,11.52
2022-10-25T04:40:47.444Z,11.52
2022-10-25T04:41:47.755Z,11.92
2022-10-25T04:42:48.100Z,11.599999
2022-10-25T04:43:47.972Z,11.52
2022-10-25T04:44:48.122Z,11.679999
2022-10-25T04:45:48.238Z,11.84
2022-10-25T04:46:48.833Z,11.679999
2022-10-25T04:47:48.566Z,11.84
2022-10-25T04:48:48.711Z,12
2022-10-25T04:49:49.191Z,11.679999
2022-10-25T04:50:49.345Z,11.599999
2022-10-25T04:52:49.819Z,11.92
2022-10-25T04:53:49.421Z,11.679999
2022-10-25T04:54:49.582Z,11.84
2022-10-25T04:55:49.728Z,12
2022-10-25T04:56:49.867Z,11.679999
2022-10-25T04:57:50.028Z,11.599999
2022-10-25T04:58:50.133Z,11.44
2022-10-25T04:59:50.279Z,11.599999
2022-10-25T05:00:50.364Z,11.84
2022-10-25T05:02:51.465Z,11.679999
2022-10-25T05:03:50.780Z,11.44
2022-10-25T05:04:50.941Z,11.92
2022-10-25T05:05:51.078Z,12
2022-10-25T05:06:51.235Z,11.92
2022-10-25T05:07:51.382Z,12.08
2022-10-25T05:08:51.538Z,12.24
2022-10-25T05:09:51.638Z,12.24
2022-10-25T05:10:51.789Z,12.32
2022-10-25T05:11:51.946Z,12
2022-10-25T05:12:52.097Z,11.92
2022-10-25T05:13:52.256Z,12
2022-10-25T05:14:52.350Z,11.679999
2022-10-25T05:15:52.492Z,11.92
2022-10-25T05:16:52.653Z,12
2022-10-25T05:17:52.805Z,12.08
2022-10-25T05:18:52.960Z,12
2022-10-25T05:19:53.112Z,12
2022-10-25T05:20:53.253Z,12.08
2022-10-25T05:21:53.399Z,12.08
2022-10-25T05:22:53.522Z,12.08
2022-10-25T05:23:56.498Z,12.32
2022-10-25T05:24:53.769Z,12.32
2022-10-25T05:25:53.911Z,12.24
2022-10-25T05:26:54.030Z,12.24
2022-10-25T05:27:54.181Z,12.08
2022-10-25T05:28:54.326Z,12
2022-10-25T05:29:54.481Z,12.24
2022-10-25T05:30:54.617Z,12.08
2022-10-25T05:31:54.736Z,12.32
2022-10-25T05:32:54.882Z,12.24
2022-10-25T05:33:54.984Z,12.08
2022-10-25T05:34:55.123Z,12.24
2022-10-25T05:35:55.280Z,12.4
2022-10-25T05:36:55.434Z,12.48
2022-10-25T05:37:55.596Z,12.32
2022-10-25T05:38:55.704Z,12.639999
2022-10-25T05:39:55.843Z,12.48
2022-10-25T05:40:56.039Z,12.4
2022-10-25T05:41:56.146Z,12.32
2022-10-25T05:42:56.296Z,12.24
2022-10-25T05:43:56.445Z,12.4
2022-10-25T05:44:56.613Z,12.4
2022-10-25T05:45:56.748Z,12.32
2022-10-25T05:46:56.917Z,12.24
2022-10-25T05:47:57.064Z,12.32
2022-10-25T05:48:57.152Z,12.32
2022-10-25T05:49:57.274Z,12.4
2022-10-25T05:50:59.407Z,12.48
2022-10-25T05:51:57.563Z,12.32
2022-10-25T05:52:57.720Z,12.24
2022-10-25T05:53:57.869Z,12.32
2022-10-25T05:54:58.016Z,12.24
2022-10-25T05:55:58.169Z,12.4
2022-10-25T05:56:58.328Z,12.32
2022-10-25T05:57:58.476Z,12.24
2022-10-25T05:58:58.578Z,12.08
2022-10-25T05:59:58.740Z,12.4
2022-10-25T06:00:58.878Z,12.32
2022-10-25T06:01:59.101Z,12.48
2022-10-25T06:02:59.189Z,12.48
2022-10-25T06:03:59.342Z,12.4
2022-10-25T06:04:59.494Z,12.719999
2022-10-25T06:05:59.643Z,12.48
2022-10-25T06:06:59.781Z,12.4
2022-10-25T06:07:59.845Z,12.4
2022-10-25T06:08:59.997Z,12.48
2022-10-25T06:10:00.146Z,12.4
2022-10-25T06:11:00.320Z,12.48
2022-10-25T06:12:00.415Z,12.4
2022-10-25T06:13:00.537Z,12.4
2022-10-25T06:14:00.701Z,12.4
2022-10-25T06:15:00.850Z,12.4
2022-10-25T06:16:00.990Z,12.639999
2022-10-25T06:17:01.097Z,12.639999
2022-10-25T06:18:01.214Z,12.639999
2022-10-25T06:19:01.362Z,12.48
2022-10-25T06:20:01.507Z,12.48
2022-10-25T06:21:01.665Z,12.48
2022-10-25T06:22:01.805Z,12.639999
2022-10-25T06:23:02.095Z,12.48
2022-10-25T06:24:02.195Z,12.48
2022-10-25T06:25:02.404Z,12.4
2022-10-25T06:26:02.538Z,12.4
2022-10-25T06:27:02.659Z,12.4
2022-10-25T06:28:02.774Z,12.48
2022-10-25T06:29:02.918Z,12.4
2022-10-25T06:30:03.035Z,12.48
2022-10-25T06:31:03.167Z,12.48
2022-10-25T06:32:03.325Z,12.4
2022-10-25T06:33:03.452Z,12.799999
2022-10-25T06:34:03.589Z,12.719999
2022-10-25T06:35:03.742Z,12.4
2022-10-25T06:36:03.896Z,12.48
2022-10-25T06:37:04.054Z,12.639999
2022-10-25T06:38:04.194Z,12.639999
2022-10-25T06:39:05.930Z,12.48
2022-10-25T06:40:04.462Z,12.639999
2022-10-25T06:41:04.604Z,12.48
2022-10-25T06:42:04.753Z,12.639999
2022-10-25T06:43:04.891Z,12.719999
2022-10-25T06:44:05.461Z,12.799999
2022-10-25T06:45:05.147Z,12.799999
2022-10-25T06:46:05.294Z,13.12
2022-10-25T06:47:16.748Z,13.12
2022-10-25T06:48:05.612Z,13.12
2022-10-25T06:49:05.769Z,13.04
2022-10-25T06:50:05.921Z,13.04
2022-10-25T06:51:06.064Z,12.88
2022-10-25T06:52:06.217Z,13.12
2022-10-25T06:53:06.366Z,13.12
2022-10-25T06:54:06.531Z,13.12
2022-10-25T06:55:06.677Z,13.2
2022-10-25T06:56:09.155Z,13.28
2022-10-25T06:57:06.998Z,14.639999
2022-10-25T06:58:07.123Z,15.2
2022-10-25T06:59:07.240Z,15.28
2022-10-25T07:00:07.398Z,16.08
2022-10-25T07:01:07.618Z,15.2
2022-10-25T07:02:07.770Z,14.799999
2022-10-25T07:03:07.792Z,14.639999
2022-10-25T07:04:07.944Z,14.24
2022-10-25T07:05:08.042Z,14.4
2022-10-25T07:06:08.197Z,14
2022-10-25T07:07:08.348Z,13.92
2022-10-25T07:08:08.493Z,13.599999
2022-10-25T07:09:08.646Z,13.679999
2022-10-25T07:10:08.802Z,14
2022-10-25T07:11:08.951Z,13.84
2022-10-25T07:12:12.531Z,13.92
2022-10-25T07:13:09.273Z,13.679999
2022-10-25T07:14:09.411Z,13.92
2022-10-25T07:15:09.588Z,14.08
2022-10-25T07:16:09.644Z,14.32
2022-10-25T07:17:09.765Z,15.2
2022-10-25T07:18:09.911Z,15.92
2022-10-25T07:19:10.022Z,16.24
2022-10-25T07:20:10.165Z,16.48
2022-10-25T07:21:10.265Z,17.52
2022-10-25T07:22:10.417Z,18.4
2022-10-25T07:23:10.576Z,17.68
2022-10-25T07:24:10.720Z,18.08
2022-10-25T07:25:10.887Z,17.2
2022-10-25T07:26:11.024Z,17.68
2022-10-25T07:27:11.134Z,17.92
2022-10-25T07:28:11.230Z,17.76
2022-10-25T07:29:11.384Z,18.08
2022-10-25T07:30:11.554Z,17.76
2022-10-25T07:31:11.674Z,17.68
2022-10-25T07:32:11.796Z,18.08
2022-10-25T07:33:11.946Z,17.92
2022-10-25T07:34:12.122Z,18.8
2022-10-25T07:35:12.240Z,20
2022-10-25T07:36:12.503Z,20.08
2022-10-25T07:37:12.545Z,20.72
2022-10-25T07:38:12.694Z,19.28
2022-10-25T07:39:12.845Z,20.24
2022-10-25T07:40:13.009Z,20
2022-10-25T07:41:13.150Z,19.68
2022-10-25T07:42:13.304Z,19.52
2022-10-25T07:43:13.458Z,20.24
2022-10-25T07:44:16.848Z,20.64
2022-10-25T07:45:15.338Z,21.2
2022-10-25T07:46:13.899Z,19.76
2022-10-25T07:47:14.063Z,19.2
2022-10-25T07:48:14.153Z,19.04
2022-10-25T07:49:14.284Z,17.6
2022-10-25T07:50:14.423Z,17.76
2022-10-25T07:51:14.573Z,18.4
2022-10-25T07:52:14.683Z,19.12
2022-10-25T07:53:14.824Z,18.32
2022-10-25T07:54:14.975Z,16.48
2022-10-25T07:55:15.127Z,16.72
2022-10-25T07:56:16.239Z,16.4
2022-10-25T07:57:15.430Z,15.92
2022-10-25T07:58:15.579Z,16.88
2022-10-25T07:59:15.736Z,17.92
2022-10-25T08:00:15.878Z,18.32
2022-10-25T08:01:16.080Z,17.76
2022-10-25T08:02:16.175Z,17.52
2022-10-25T08:03:16.809Z,18.88
2022-10-25T08:04:16.874Z,19.04
2022-10-25T08:05:17.209Z,18
2022-10-25T08:06:16.738Z,18.24
2022-10-25T08:07:16.892Z,18.4
2022-10-25T08:08:16.984Z,19.2
2022-10-25T08:09:33.595Z,19.92
2022-10-25T08:10:17.249Z,20.64
2022-10-25T08:11:17.406Z,19.76
2022-10-25T08:12:21.653Z,19.68
2022-10-25T08:13:17.665Z,19.28
2022-10-25T08:14:17.840Z,19.76
2022-10-25T08:15:17.959Z,19.44
2022-10-25T08:16:18.049Z,19.44
2022-10-25T08:17:18.217Z,20.08
2022-10-25T08:18:18.367Z,18.88
2022-10-25T08:19:18.512Z,18.64
2022-10-25T08:20:18.668Z,17.92
2022-10-25T08:21:18.824Z,17.68
2022-10-25T08:22:19.004Z,17.12
2022-10-25T08:23:19.130Z,17.12
2022-10-25T08:25:21.516Z,16.64
2022-10-25T08:26:19.585Z,17.04
2022-10-25T08:27:19.725Z,17.68
2022-10-25T08:28:19.932Z,18.32
2022-10-25T08:29:20.079Z,17.52
2022-10-25T08:30:20.303Z,17.92
2022-10-25T08:31:20.325Z,17.44
2022-10-25T08:32:20.473Z,17.04
2022-10-25T08:33:20.592Z,17.2
2022-10-25T08:34:20.740Z,17.2
2022-10-25T08:35:20.900Z,16.64
2022-10-25T08:36:21.114Z,16.4
2022-10-25T08:37:21.206Z,16.72
2022-10-25T08:38:21.349Z,16
2022-10-25T08:39:21.506Z,16.08
2022-10-25T08:40:21.647Z,15.839999
2022-10-25T08:41:21.753Z,15.679999
2022-10-25T08:42:21.903Z,15.679999
2022-10-25T08:43:22.060Z,15.839999
2022-10-25T08:44:22.208Z,15.28
2022-10-25T08:45:22.361Z,15.44
2022-10-25T08:46:22.497Z,15.44
2022-10-25T08:47:22.651Z,15.599999
2022-10-25T08:48:22.751Z,15.599999
2022-10-25T08:49:22.938Z,15.599999
2022-10-25T08:50:23.067Z,15.52
2022-10-25T08:51:23.227Z,15.52
2022-10-25T08:52:23.373Z,15.52
2022-10-25T08:53:23.534Z,15.599999
2022-10-25T08:54:23.684Z,15.599999
2022-10-25T08:55:23.842Z,15.599999
2022-10-25T08:56:23.978Z,15.44
2022-10-25T08:57:24.087Z,15.679999
2022-10-25T08:58:24.226Z,16.24
2022-10-25T08:59:24.325Z,16.08
2022-10-25T09:00:24.490Z,16
2022-10-25T09:01:24.608Z,15.92
2022-10-25T09:02:24.868Z,15.92
2022-10-25T09:03:24.840Z,16.08
2022-10-25T09:04:24.988Z,16.24
2022-10-25T09:05:25.156Z,16
2022-10-25T09:06:25.298Z,16.08
2022-10-25T09:07:25.445Z,16.32
2022-10-25T09:08:25.602Z,16.4
2022-10-25T09:09:25.754Z,16.32
2022-10-25T09:10:25.899Z,15.839999
2022-10-25T09:11:26.144Z,16
2022-10-25T09:12:26.266Z,16
2022-10-25T09:13:26.427Z,16
2022-10-25T09:14:26.514Z,16.24
2022-10-25T09:15:26.664Z,16
2022-10-25T09:16:26.797Z,16.24
2022-10-25T09:17:26.899Z,16
2022-10-25T09:18:27.012Z,16.08
2022-10-25T09:19:27.175Z,16.08
2022-10-25T09:20:27.324Z,16
2022-10-25T09:21:27.469Z,16
2022-10-25T09:22:27.630Z,15.839999
2022-10-25T09:23:27.728Z,16.24
2022-10-25T09:24:27.889Z,16.24
2022-10-25T09:25:28.041Z,15.92
2022-10-25T09:26:28.185Z,16
2022-10-25T09:27:28.343Z,15.92
2022-10-25T09:28:28.502Z,15.599999
2022-10-25T09:29:28.650Z,15.839999
2022-10-25T09:30:28.785Z,16
2022-10-25T09:31:28.875Z,15.839999
2022-10-25T09:32:28.993Z,15.599999
2022-10-25T09:33:29.134Z,15.44
2022-10-25T09:34:29.296Z,15.44
2022-10-25T09:35:29.448Z,15.28
2022-10-25T09:36:29.601Z,15.52
2022-10-25T09:37:29.750Z,15.52
2022-10-25T09:38:29.901Z,15.44
2022-10-25T09:39:30.057Z,15.599999
2022-10-25T09:40:30.215Z,15.679999
2022-10-25T09:41:30.356Z,15.44
2022-10-25T09:42:30.462Z,15.28
2022-10-25T09:43:30.622Z,15.28
2022-10-25T09:44:30.768Z,15.52
2022-10-25T09:45:30.919Z,15.28
2022-10-25T09:46:31.011Z,15.52
2022-10-25T09:47:31.171Z,15.44
2022-10-25T09:48:31.315Z,15.599999
2022-10-25T09:49:31.468Z,15.839999
2022-10-25T09:50:31.582Z,15.92
2022-10-25T09:51:31.721Z,16
2022-10-25T09:52:31.879Z,15.92
2022-10-25T09:53:32.016Z,16
2022-10-25T09:54:32.180Z,16
2022-10-25T09:55:32.333Z,15.599999
2022-10-25T09:56:32.478Z,15.599999
2022-10-25T09:57:32.639Z,15.839999
2022-10-25T09:58:32.779Z,15.839999
2022-10-25T09:59:32.935Z,15.839999
2022-10-25T10:00:33.094Z,16
2022-10-25T10:01:33.328Z,16
2022-10-25T10:02:33.559Z,16
2022-10-25T10:03:33.546Z,15.839999
2022-10-25T10:04:33.683Z,15.92
2022-10-25T10:05:34.558Z,16.08
2022-10-25T10:06:33.943Z,16.08
2022-10-25T10:07:34.088Z,15.839999
2022-10-25T10:08:34.185Z,15.92
2022-10-25T10:09:34.362Z,16
2022-10-25T10:10:34.463Z,15.839999
2022-10-25T10:11:34.619Z,15.599999
2022-10-25T10:12:34.762Z,15.679999
2022-10-25T10:13:34.940Z,15.52
2022-10-25T10:14:35.077Z,15.679999
2022-10-25T10:15:35.219Z,15.52
2022-10-25T10:16:35.357Z,15.28
2022-10-25T10:17:35.529Z,15.2
2022-10-25T10:18:35.631Z,15.04
2022-10-25T10:19:35.785Z,15.2
2022-10-25T10:20:35.917Z,15.2
2022-10-25T10:21:36.071Z,15.04
2022-10-25T10:22:36.317Z,15.2
2022-10-25T10:23:36.385Z,15.44
2022-10-25T10:24:36.483Z,15.44
2022-10-25T10:25:36.634Z,15.2
2022-10-25T10:26:36.770Z,15.28
2022-10-25T10:27:36.929Z,15.44
2022-10-25T10:28:37.037Z,15.28
2022-10-25T10:29:37.193Z,15.28
2022-10-25T10:30:37.329Z,15.04
2022-10-25T10:31:37.434Z,15.12
2022-10-25T10:32:37.592Z,15.12
2022-10-25T10:33:37.694Z,15.2
2022-10-25T10:34:37.856Z,15.28
2022-10-25T10:35:38.008Z,15.28
2022-10-25T10:36:38.156Z,15.2
2022-10-25T10:37:38.306Z,15.12
2022-10-25T10:38:38.429Z,15.28
2022-10-25T10:39:38.542Z,15.2
2022-10-25T10:40:38.659Z,15.44
2022-10-25T10:41:38.810Z,15.599999
2022-10-25T10:42:38.956Z,15.679999
2022-10-25T10:43:39.115Z,15.839999
2022-10-25T10:44:39.264Z,15.839999
2022-10-25T10:45:39.400Z,15.839999
2022-10-25T10:46:39.555Z,15.839999
2022-10-25T10:47:39.655Z,15.599999
2022-10-25T10:48:41.785Z,15.679999
2022-10-25T10:49:39.878Z,15.679999
2022-10-25T10:50:41.541Z,15.679999
2022-10-25T10:51:44.292Z,15.679999
2022-10-25T10:52:40.284Z,15.52
2022-10-25T10:53:40.436Z,15.52
2022-10-25T10:54:40.585Z,15.52
2022-10-25T10:55:40.764Z,15.44
2022-10-25T10:56:40.906Z,15.44
2022-10-25T10:57:41.040Z,15.679999
2022-10-25T10:58:41.189Z,15.839999
2022-10-25T10:59:41.346Z,15.839999
2022-10-25T11:00:41.478Z,15.839999
2022-10-25T11:01:41.737Z,16.24
2022-10-25T11:02:42.020Z,16.32
2022-10-25T11:03:48.621Z,16.64
2022-10-25T11:04:41.997Z,16.64
2022-10-25T11:05:42.139Z,16.64
2022-10-25T11:06:42.276Z,16.64
2022-10-25T11:07:42.454Z,16.8
2022-10-25T11:08:42.563Z,16.88
2022-10-25T11:09:42.659Z,17.6
2022-10-25T11:10:42.815Z,17.68
2022-10-25T11:11:42.935Z,18.72
2022-10-25T11:12:43.092Z,19.12
2022-10-25T11:13:43.217Z,19.76
2022-10-25T11:14:43.364Z,19.6
2022-10-25T11:15:43.504Z,19.68
2022-10-25T11:16:43.674Z,20.08
2022-10-25T11:17:43.813Z,19.6
2022-10-25T11:18:43.978Z,19.68
2022-10-25T11:19:44.121Z,19.44
2022-10-25T11:20:44.278Z,19.04
2022-10-25T11:21:44.428Z,18.64
2022-10-25T11:22:44.575Z,18.48
2022-10-25T11:23:44.730Z,18.32
2022-10-25T11:24:44.879Z,18.08
2022-10-25T11:25:45.035Z,17.68
2022-10-25T11:26:45.137Z,17.28
2022-10-25T11:27:45.329Z,17.2
2022-10-25T11:28:45.445Z,17.44
2022-10-25T11:29:45.551Z,16.8
2022-10-25T11:30:45.686Z,16.88
2022-10-25T11:31:45.831Z,16.4
2022-10-25T11:32:46.479Z,16.72
2022-10-25T11:33:46.145Z,16.64
2022-10-25T11:34:46.299Z,16.64
2022-10-25T11:35:46.448Z,16.72
2022-10-25T11:36:46.606Z,17.2
2022-10-25T11:37:46.891Z,17.28
2022-10-25T11:38:46.905Z,17.2
2022-10-25T11:39:48.472Z,18.32
2022-10-25T11:40:47.201Z,19.28
2022-10-25T11:41:47.365Z,19.12
2022-10-25T11:42:47.786Z,19.04
2022-10-25T11:43:47.677Z,19.2
2022-10-25T11:44:47.820Z,19.04
2022-10-25T11:45:47.959Z,18.32
2022-10-25T11:46:48.075Z,18.72
2022-10-25T11:47:48.224Z,18.48
2022-10-25T11:48:48.373Z,17.92
2022-10-25T11:49:48.477Z,18
2022-10-25T11:50:48.626Z,17.44
2022-10-25T11:51:48.779Z,17.6
2022-10-25T11:52:51.019Z,17.52
2022-10-25T11:53:49.068Z,17.44
2022-10-25T11:54:49.188Z,17.28
2022-10-25T11:55:49.339Z,17.12
2022-10-25T11:56:49.426Z,17.28
2022-10-25T11:57:49.586Z,17.2
2022-10-25T11:58:49.741Z,17.44
2022-10-25T11:59:49.901Z,17.12
2022-10-25T12:00:50.033Z,16.8
2022-10-25T12:01:50.153Z,16.8
2022-10-25T12:02:50.762Z,16.72
2022-10-25T12:03:50.391Z,16.48
2022-10-25T12:04:50.550Z,16.48
2022-10-25T12:05:50.656Z,16.88
2022-10-25T12:06:50.809Z,17.04
2022-10-25T12:07:50.960Z,16.88
2022-10-25T12:08:51.054Z,16.8
2022-10-25T12:09:51.208Z,16.64
2022-10-25T12:10:51.360Z,16.64
2022-10-25T12:11:51.521Z,16.4
2022-10-25T12:12:51.669Z,16.64
2022-10-25T12:13:51.819Z,16.8
2022-10-25T12:14:51.971Z,16.72
2022-10-25T12:15:52.108Z,16.48
2022-10-25T12:16:52.267Z,16.24
2022-10-25T12:17:52.394Z,16.24
2022-10-25T12:18:52.513Z,16.32
2022-10-25T12:19:52.691Z,16.32
2022-10-25T12:20:52.833Z,16.32
2022-10-25T12:21:54.081Z,16.4
2022-10-25T12:22:53.134Z,16.24
2022-10-25T12:23:53.291Z,16.32
2022-10-25T12:24:53.485Z,16.48
2022-10-25T12:25:53.590Z,16.64
2022-10-25T12:26:53.738Z,16.32
2022-10-25T12:27:56.440Z,16.48
2022-10-25T12:28:54.046Z,16.8
2022-10-25T12:29:54.192Z,17.44
2022-10-25T12:30:54.337Z,17.52
2022-10-25T12:31:54.844Z,17.52
2022-10-25T12:32:55.152Z,17.52
2022-10-25T12:33:54.796Z,17.6
2022-10-25T12:34:54.958Z,17.68
2022-10-25T12:35:55.112Z,17.52
2022-10-25T12:36:55.275Z,17.28
2022-10-25T12:37:56.507Z,17.2
2022-10-25T12:38:55.466Z,17.44
2022-10-25T12:39:55.624Z,17.6
2022-10-25T12:40:55.763Z,17.28
2022-10-25T12:41:55.869Z,17.6
2022-10-25T12:42:55.969Z,17.68
2022-10-25T12:43:56.123Z,17.76
2022-10-25T12:44:56.219Z,18.32
2022-10-25T12:45:57.588Z,18.4
2022-10-25T12:46:56.495Z,18.08
2022-10-25T12:47:56.634Z,18.08